sensor_id;sensor_type;location;lat;lon;timestamp;P1;durP1;ratioP1;P2;durP2;ratioP2
50689;SDS011;54375;48.298;11.238;2023-02-01T00:09:29;11.95;;;6.57;;
50689;SDS011;54375;48.298;11.238;2023-02-01T00:29:31;15.57;;;8.27;;
50689;SDS011;54375;48.298;11.238;2023-02-01T00:49:34;14.82;;;8.82;;
50689;SDS011;54375;48.298;11.238;2023-02-01T01:09:37;15.35;;;9.02;;
50689;SDS011;54375;48.298;11.238;2023-02-01T01:29:39;17.75;;;9.98;;
50689;SDS011;54375;48.298;11.238;2023-02-01T01:49:41;16.85;;;9.75;;
50689;SDS011;54375;48.298;11.238;2023-02-01T02:09:44;20.17;;;10.95;;
50689;SDS011;54375;48.298;11.238;2023-02-01T02:50:25;16.98;;;10.05;;
50689;SDS011;54375;48.298;11.238;2023-02-01T03:10:35;19.08;;;9.55;;
50689;SDS011;54375;48.298;11.238;2023-02-01T03:30:44;14.95;;;8.27;;
50689;SDS011;54375;48.298;11.238;2023-02-01T03:50:50;13.52;;;6.97;;
50689;SDS011;54375;48.298;11.238;2023-02-01T04:10:57;12.57;;;7.70;;
50689;SDS011;54375;48.298;11.238;2023-02-01T04:31:00;10.95;;;7.30;;
50689;SDS011;54375;48.298;11.238;2023-02-01T04:51:02;13.82;;;6.95;;
50689;SDS011;54375;48.298;11.238;2023-02-01T05:11:05;12.60;;;7.60;;
50689;SDS011;54375;48.298;11.238;2023-02-01T05:31:10;13.50;;;7.60;;
50689;SDS011;54375;48.298;11.238;2023-02-01T05:51:13;9.38;;;6.45;;
50689;SDS011;54375;48.298;11.238;2023-02-01T06:11:15;11.82;;;6.85;;
50689;SDS011;54375;48.298;11.238;2023-02-01T06:31:17;11.05;;;7.00;;
50689;SDS011;54375;48.298;11.238;2023-02-01T06:51:20;11.70;;;7.50;;
50689;SDS011;54375;48.298;11.238;2023-02-01T07:11:23;13.38;;;8.00;;
50689;SDS011;54375;48.298;11.238;2023-02-01T07:31:26;10.55;;;6.78;;
50689;SDS011;54375;48.298;11.238;2023-02-01T07:51:28;16.13;;;8.68;;
50689;SDS011;54375;48.298;11.238;2023-02-01T08:11:30;11.70;;;6.55;;
50689;SDS011;54375;48.298;11.238;2023-02-01T08:31:33;10.52;;;6.43;;
50689;SDS011;54375;48.298;11.238;2023-02-01T08:51:35;9.23;;;5.63;;
50689;SDS011;54375;48.298;11.238;2023-02-01T09:11:38;9.07;;;5.65;;
50689;SDS011;54375;48.298;11.238;2023-02-01T09:31:40;9.25;;;5.13;;
50689;SDS011;54375;48.298;11.238;2023-02-01T09:51:43;7.20;;;4.60;;
50689;SDS011;54375;48.298;11.238;2023-02-01T10:11:53;7.97;;;4.50;;
50689;SDS011;54375;48.298;11.238;2023-02-01T10:32:10;6.32;;;3.88;;
50689;SDS011;54375;48.298;11.238;2023-02-01T10:52:16;6.88;;;3.90;;
50689;SDS011;54375;48.298;11.238;2023-02-01T11:12:22;8.05;;;4.80;;
50689;SDS011;54375;48.298;11.238;2023-02-01T11:32:28;6.47;;;4.30;;
50689;SDS011;54375;48.298;11.238;2023-02-01T11:52:51;8.52;;;5.22;;
50689;SDS011;54375;48.298;11.238;2023-02-01T12:13:12;11.15;;;5.18;;
50689;SDS011;54375;48.298;11.238;2023-02-01T12:33:24;9.93;;;4.82;;
50689;SDS011;54375;48.298;11.238;2023-02-01T12:53:37;9.02;;;4.75;;
50689;SDS011;54375;48.298;11.238;2023-02-01T13:13:48;9.52;;;4.70;;
50689;SDS011;54375;48.298;11.238;2023-02-01T13:34:06;7.80;;;4.65;;
50689;SDS011;54375;48.298;11.238;2023-02-01T13:54:32;11.27;;;4.72;;
50689;SDS011;54375;48.298;11.238;2023-02-01T14:14:40;10.82;;;6.45;;
50689;SDS011;54375;48.298;11.238;2023-02-01T14:34:48;11.77;;;4.90;;
50689;SDS011;54375;48.298;11.238;2023-02-01T14:54:53;9.45;;;4.00;;
50689;SDS011;54375;48.298;11.238;2023-02-01T15:15:09;9.40;;;3.22;;
50689;SDS011;54375;48.298;11.238;2023-02-01T15:55:46;6.85;;;3.35;;
50689;SDS011;54375;48.298;11.238;2023-02-01T16:15:53;9.07;;;3.47;;
50689;SDS011;54375;48.298;11.238;2023-02-01T16:35:56;6.40;;;2.80;;
50689;SDS011;54375;48.298;11.238;2023-02-01T16:55:59;9.90;;;3.20;;
50689;SDS011;54375;48.298;11.238;2023-02-01T17:16:02;11.00;;;4.15;;
50689;SDS011;54375;48.298;11.238;2023-02-01T17:36:10;12.40;;;4.50;;
50689;SDS011;54375;48.298;11.238;2023-02-01T17:56:15;7.75;;;3.55;;
50689;SDS011;54375;48.298;11.238;2023-02-01T18:16:20;13.95;;;4.32;;
50689;SDS011;54375;48.298;11.238;2023-02-01T18:36:23;9.65;;;3.97;;
50689;SDS011;54375;48.298;11.238;2023-02-01T18:56:26;15.63;;;4.07;;
50689;SDS011;54375;48.298;11.238;2023-02-01T19:16:28;13.55;;;4.35;;
50689;SDS011;54375;48.298;11.238;2023-02-01T19:36:30;13.63;;;4.88;;
50689;SDS011;54375;48.298;11.238;2023-02-01T19:56:33;11.80;;;4.47;;
50689;SDS011;54375;48.298;11.238;2023-02-01T20:16:36;13.65;;;4.15;;
50689;SDS011;54375;48.298;11.238;2023-02-01T20:36:38;16.52;;;4.05;;
50689;SDS011;54375;48.298;11.238;2023-02-01T20:56:41;18.83;;;4.15;;
50689;SDS011;54375;48.298;11.238;2023-02-01T21:16:43;12.50;;;3.72;;
50689;SDS011;54375;48.298;11.238;2023-02-01T21:36:45;10.05;;;3.17;;
50689;SDS011;54375;48.298;11.238;2023-02-01T21:56:48;13.23;;;3.78;;
50689;SDS011;54375;48.298;11.238;2023-02-01T22:16:50;9.52;;;3.35;;
50689;SDS011;54375;48.298;11.238;2023-02-01T22:36:53;10.38;;;3.20;;
50689;SDS011;54375;48.298;11.238;2023-02-01T22:56:55;11.65;;;3.30;;
50689;SDS011;54375;48.298;11.238;2023-02-01T23:16:57;14.90;;;3.50;;
50689;SDS011;54375;48.298;11.238;2023-02-01T23:37:00;10.27;;;2.83;;
50689;SDS011;54375;48.298;11.238;2023-02-01T23:57:02;10.85;;;3.35;;
